Time;durP1;ratioP1;P1;durP2;ratioP2;P2;SDS_P1;SDS_P2;PMS_P1;PMS_P2;Temp;Humidity;BMP_temperature;BMP_pressure;BME280_temperature;BME280_humidity;BME280_pressure;Samples;Min_cycle;Max_cycle;Signal;HPM_P1;HPM_P2
2022/01/18 00:02:05;;;;;;;9.07;5.18;;;5.70;99.90;;;;;;5314391;27;20019;-72
2022/01/18 00:04:35;;;;;;;8.43;5.15;;;5.70;99.90;;;;;;5313941;27;20015;-72
2022/01/18 00:07:06;;;;;;;8.43;4.32;;;5.50;99.90;;;;;;5313952;27;20027;-71
2022/01/18 00:09:38;;;;;;;7.35;4.50;;;5.50;99.90;;;;;;5313392;27;20473;-71
2022/01/18 00:12:30;;;;;;;7.07;4.35;;;5.50;99.90;;;;;;5314076;27;20461;-71
2022/01/18 00:18:05;;;;;;;7.05;3.92;;;5.70;99.90;;;;;;5314115;27;20361;-71
2022/01/18 00:21:00;;;;;;;9.82;3.83;;;5.80;99.90;;;;;;5313788;27;20043;-72
2022/01/18 00:23:31;;;;;;;6.50;3.78;;;5.60;99.90;;;;;;5313940;27;20453;-71
2022/01/18 00:26:03;;;;;;;9.27;3.80;;;5.90;99.90;;;;;;5295257;27;20019;-71
2022/01/18 00:28:36;;;;;;;5.95;3.38;;;5.60;99.90;;;;;;5313341;27;20040;-71
2022/01/18 00:31:20;;;;;;;5.10;3.20;;;5.80;99.90;;;;;;5313409;27;20055;-70
2022/01/18 00:34:16;;;;;;;5.50;3.30;;;5.80;99.90;;;;;;5313386;27;20019;-71
2022/01/18 00:39:19;;;;;;;5.72;3.05;;;6.00;99.90;;;;;;5312973;27;20031;-71
2022/01/18 00:41:50;;;;;;;5.45;3.42;;;6.00;99.90;;;;;;5313196;27;20024;-71
2022/01/18 00:44:21;;;;;;;6.35;3.47;;;5.80;99.90;;;;;;5313554;27;20027;-71
2022/01/18 00:46:52;;;;;;;4.93;3.00;;;5.90;99.90;;;;;;5313074;27;20023;-72
2022/01/18 00:49:23;;;;;;;8.00;3.25;;;6.00;99.90;;;;;;5313055;27;20465;-71
2022/01/18 00:51:57;;;;;;;5.25;3.05;;;5.90;99.90;;;;;;5313052;27;20062;-71
2022/01/18 00:54:36;;;;;;;5.95;3.00;;;5.60;99.90;;;;;;5312802;27;20030;-71
2022/01/18 00:57:07;;;;;;;5.22;3.00;;;5.90;99.90;;;;;;5312158;27;20035;-71
2022/01/18 00:59:40;;;;;;;4.15;2.60;;;5.80;99.90;;;;;;5312738;27;20043;-75
2022/01/18 01:02:11;;;;;;;4.90;3.00;;;5.60;99.90;;;;;;5312693;27;20165;-74
2022/01/18 01:04:47;;;;;;;5.50;2.58;;;5.60;99.90;;;;;;5312704;27;20112;-75
2022/01/18 01:07:21;;;;;;;3.83;2.55;;;5.50;99.90;;;;;;5312875;27;20354;-75
2022/01/18 01:09:52;;;;;;;5.82;2.78;;;5.80;99.90;;;;;;5312527;27;20023;-74
2022/01/18 01:12:26;;;;;;;5.15;2.80;;;5.80;99.90;;;;;;5312599;27;20027;-74
2022/01/18 01:15:04;;;;;;;4.68;2.80;;;5.30;99.90;;;;;;5312521;27;20015;-75
2022/01/18 01:17:51;;;;;;;6.90;2.97;;;5.10;99.90;;;;;;5312463;27;20042;-74
2022/01/18 01:34:45;;;;;;;33.05;10.98;;;4.60;99.90;;;;;;5312601;27;20033;-74
2022/01/18 01:43:21;;;;;;;31.35;13.40;;;4.30;99.90;;;;;;5312341;27;20059;-74
2022/01/18 01:45:53;;;;;;;25.83;10.32;;;4.30;99.90;;;;;;5312218;27;20076;-75
2022/01/18 01:48:26;;;;;;;31.27;15.27;;;4.30;99.90;;;;;;5312035;27;20015;-74
2022/01/18 01:51:05;;;;;;;32.28;17.38;;;4.00;99.90;;;;;;5311971;27;20058;-74
2022/01/18 01:53:36;;;;;;;7.70;4.80;;;4.20;99.90;;;;;;5311923;27;20050;-73
2022/01/18 01:56:07;;;;;;;8.68;4.20;;;4.10;99.90;;;;;;5312172;27;20525;-75
2022/01/18 01:58:38;;;;;;;6.18;3.65;;;4.10;99.90;;;;;;5311446;27;20078;-74
2022/01/18 02:01:09;;;;;;;10.57;4.47;;;4.20;99.90;;;;;;5311960;27;20084;-74
2022/01/18 02:03:40;;;;;;;5.68;3.17;;;4.90;99.90;;;;;;5311966;27;20024;-74
2022/01/18 02:06:11;;;;;;;6.50;3.50;;;5.40;99.90;;;;;;5311798;27;20035;-75
2022/01/18 02:08:43;;;;;;;5.55;3.65;;;5.70;99.90;;;;;;5311760;27;20019;-73
2022/01/18 02:11:13;;;;;;;5.72;3.67;;;5.70;99.90;;;;;;5311626;27;20031;-74
2022/01/18 02:13:48;;;;;;;4.07;2.92;;;5.80;99.90;;;;;;5311703;28;20027;-74
2022/01/18 02:21:59;;;;;;;5.78;3.03;;;6.20;99.90;;;;;;5311868;28;20430;-74
2022/01/18 02:24:30;;;;;;;6.07;3.47;;;6.10;99.90;;;;;;5311051;28;20106;-71
2022/01/18 02:27:02;;;;;;;4.85;2.95;;;6.10;99.90;;;;;;5311683;28;20046;-74
2022/01/18 02:29:33;;;;;;;8.07;3.75;;;6.00;99.90;;;;;;5293044;28;20126;-74
2022/01/18 02:32:05;;;;;;;7.28;4.22;;;6.00;99.90;;;;;;5313674;27;20144;-74
2022/01/18 02:34:36;;;;;;;7.15;4.28;;;6.00;99.90;;;;;;5315876;27;20027;-71
2022/01/18 02:37:07;;;;;;;11.18;6.50;;;6.00;99.90;;;;;;5315913;27;20016;-71
2022/01/18 02:39:39;;;;;;;9.98;4.68;;;5.90;99.90;;;;;;5315657;27;20015;-71
2022/01/18 02:42:11;;;;;;;7.40;4.40;;;5.90;99.90;;;;;;5315959;27;20034;-71
2022/01/18 02:44:43;;;;;;;5.75;3.75;;;5.90;99.90;;;;;;5315485;27;20028;-71
2022/01/18 02:47:14;;;;;;;9.85;3.80;;;5.80;99.90;;;;;;5315686;27;20450;-70
2022/01/18 02:49:46;;;;;;;10.55;4.78;;;5.80;99.90;;;;;;5315635;27;20026;-71
2022/01/18 02:52:17;;;;;;;5.20;3.00;;;5.70;99.90;;;;;;5315154;27;20080;-71
2022/01/18 02:54:48;;;;;;;6.28;3.60;;;5.80;99.90;;;;;;5315429;27;20021;-71
2022/01/18 02:57:26;;;;;;;7.53;3.42;;;5.80;99.90;;;;;;5315163;27;20505;-71
2022/01/18 03:00:15;;;;;;;6.07;3.60;;;5.70;99.90;;;;;;5315403;27;20425;-70
2022/01/18 03:05:35;;;;;;;9.32;3.25;;;5.80;99.90;;;;;;5315648;27;20052;-70
2022/01/18 03:08:08;;;;;;;8.02;3.60;;;5.60;99.90;;;;;;5315061;27;20024;-71
2022/01/18 03:10:40;;;;;;;6.60;3.75;;;5.70;99.90;;;;;;5315171;27;20022;-70
2022/01/18 03:13:11;;;;;;;6.85;3.58;;;5.70;99.90;;;;;;5315199;27;20031;-70
2022/01/18 03:15:42;;;;;;;8.32;3.67;;;5.60;99.90;;;;;;5314579;27;20098;-72
2022/01/18 03:18:13;;;;;;;7.90;3.65;;;5.50;99.90;;;;;;5314601;27;20106;-73
2022/01/18 03:20:44;;;;;;;5.10;3.25;;;5.60;99.90;;;;;;5314801;27;20031;-75
2022/01/18 03:23:19;;;;;;;9.35;3.30;;;5.70;99.90;;;;;;5314758;27;20192;-74
2022/01/18 03:25:59;;;;;;;5.53;3.20;;;5.80;99.90;;;;;;5314873;27;20116;-74
2022/01/18 03:28:30;;;;;;;5.25;3.17;;;5.80;99.90;;;;;;5314666;27;20440;-75
2022/01/18 03:31:01;;;;;;;5.80;3.47;;;5.80;99.90;;;;;;5314662;27;20472;-74
2022/01/18 03:33:32;;;;;;;9.15;3.33;;;5.80;99.90;;;;;;5314727;27;20028;-75
2022/01/18 03:36:05;;;;;;;8.80;3.55;;;5.80;99.90;;;;;;5296273;27;20033;-75
2022/01/18 03:38:36;;;;;;;8.25;3.75;;;5.80;99.90;;;;;;5314301;27;20083;-74
2022/01/18 03:41:06;;;;;;;5.97;3.20;;;5.80;99.90;;;;;;5314599;27;20023;-74
2022/01/18 03:43:39;;;;;;;5.75;3.10;;;5.90;99.90;;;;;;5313553;27;20517;-75
2022/01/18 03:46:10;;;;;;;8.48;3.72;;;5.60;99.90;;;;;;5314351;27;20110;-74
2022/01/18 03:48:49;;;;;;;8.82;3.78;;;5.30;99.90;;;;;;5314408;27;20031;-75
2022/01/18 03:51:20;;;;;;;6.00;3.20;;;4.40;99.90;;;;;;5314344;27;20023;-76
2022/01/18 03:53:52;;;;;;;8.60;1.67;;;4.10;99.90;;;;;;5314222;27;20503;-75
2022/01/18 03:56:22;;;;;;;3.22;0.90;;;3.20;99.90;;;;;;5314208;27;20437;-74
2022/01/18 03:58:53;;;;;;;2.97;1.10;;;2.70;99.90;;;;;;5313830;27;20043;-74
2022/01/18 04:01:24;;;;;;;4.78;1.40;;;2.50;99.90;;;;;;5314176;27;20553;-75
2022/01/18 04:03:55;;;;;;;8.10;1.23;;;2.60;99.90;;;;;;5313951;27;20047;-74
2022/01/18 04:06:27;;;;;;;6.40;1.90;;;2.70;99.90;;;;;;5314057;27;20027;-75
2022/01/18 04:08:58;;;;;;;7.57;1.13;;;2.60;99.90;;;;;;5313955;27;20027;-75
2022/01/18 04:11:28;;;;;;;2.50;0.80;;;2.50;99.90;;;;;;5295569;27;20031;-72
2022/01/18 04:14:00;;;;;;;4.00;0.95;;;2.50;99.90;;;;;;5313948;27;20038;-75
2022/01/18 04:16:40;;;;;;;7.32;1.52;;;2.70;99.90;;;;;;5313837;27;20027;-74
2022/01/18 04:19:33;;;;;;;7.07;1.77;;;2.80;99.90;;;;;;5313606;27;20054;-74
2022/01/18 04:27:52;;;;;;;6.63;2.70;;;2.70;99.90;;;;;;5313264;27;20087;-77
2022/01/18 04:30:23;;;;;;;8.20;2.45;;;2.70;99.90;;;;;;5313409;27;20019;-76
2022/01/18 04:32:54;;;;;;;11.85;2.45;;;2.90;99.90;;;;;;5313631;27;20371;-76
2022/01/18 04:35:25;;;;;;;5.13;2.38;;;2.60;99.90;;;;;;5313420;27;20019;-71
2022/01/18 04:37:56;;;;;;;11.50;2.08;;;2.60;99.90;;;;;;5313326;27;20027;-72
2022/01/18 04:40:30;;;;;;;7.57;2.08;;;2.70;99.90;;;;;;5313359;27;20377;-71
2022/01/18 04:43:11;;;;;;;8.95;2.22;;;2.90;99.90;;;;;;5313336;27;20023;-71
2022/01/18 04:48:34;;;;;;;4.22;1.10;;;3.00;99.90;;;;;;5313639;27;20382;-73
2022/01/18 04:51:10;;;;;;;6.47;1.63;;;3.10;99.90;;;;;;5313044;27;20110;-75
2022/01/18 04:53:49;;;;;;;8.88;1.85;;;3.00;99.90;;;;;;5313344;27;20022;-73
2022/01/18 04:59:18;;;;;;;5.97;0.93;;;3.00;99.90;;;;;;5283182;27;20134;-75
2022/01/18 05:01:51;;;;;;;4.90;0.90;;;3.10;99.90;;;;;;5313171;27;20469;-74
2022/01/18 05:04:21;;;;;;;4.18;1.45;;;3.10;99.90;;;;;;5312851;27;20030;-73
2022/01/18 05:06:58;;;;;;;7.57;1.70;;;3.20;99.90;;;;;;5312900;27;20019;-75
2022/01/18 05:09:29;;;;;;;5.53;2.08;;;3.10;99.90;;;;;;5312654;27;20023;-72
2022/01/18 05:12:07;;;;;;;6.50;1.92;;;3.10;99.90;;;;;;5312900;27;20451;-75
2022/01/18 05:14:39;;;;;;;10.93;2.08;;;3.20;99.90;;;;;;5312731;27;20331;-72
2022/01/18 05:23:02;;;;;;;7.25;1.73;;;3.10;99.90;;;;;;5312881;27;20027;-72
2022/01/18 05:25:35;;;;;;;10.55;1.73;;;3.10;99.90;;;;;;5312567;27;20027;-71
2022/01/18 05:28:06;;;;;;;5.13;1.17;;;3.10;99.90;;;;;;5312301;27;20058;-73
2022/01/18 05:30:40;;;;;;;3.30;1.58;;;3.20;99.90;;;;;;5294023;27;20037;-72
2022/01/18 05:33:11;;;;;;;10.27;1.65;;;3.10;99.90;;;;;;5312537;27;20019;-71
2022/01/18 05:35:42;;;;;;;3.30;1.20;;;3.20;99.90;;;;;;5311830;27;20439;-73
2022/01/18 05:38:13;;;;;;;3.20;0.90;;;3.30;99.90;;;;;;5312031;27;20015;-74
2022/01/18 05:40:44;;;;;;;10.07;1.80;;;3.10;99.90;;;;;;5312071;27;20039;-74
2022/01/18 05:43:15;;;;;;;6.65;1.63;;;3.30;99.90;;;;;;5311966;27;20042;-75
2022/01/18 05:45:46;;;;;;;7.82;1.80;;;3.20;99.90;;;;;;5312020;27;20035;-75
2022/01/18 05:48:17;;;;;;;9.48;2.25;;;3.10;99.90;;;;;;5312237;27;20027;-76
2022/01/18 05:50:48;;;;;;;5.28;2.20;;;3.00;99.90;;;;;;5311906;27;20023;-76
2022/01/18 05:53:19;;;;;;;6.90;1.95;;;3.10;99.90;;;;;;5311841;27;20019;-76
2022/01/18 05:55:49;;;;;;;11.35;2.03;;;3.20;99.90;;;;;;5311943;27;20033;-75
2022/01/18 05:58:20;;;;;;;8.10;2.65;;;3.20;99.90;;;;;;5311501;27;20418;-75
2022/01/18 06:00:55;;;;;;;13.48;3.45;;;3.20;99.90;;;;;;5311777;27;20046;-74
2022/01/18 06:03:29;;;;;;;11.50;2.63;;;3.00;99.90;;;;;;5311903;27;20034;-72
2022/01/18 06:08:49;;;;;;;8.57;1.30;;;3.00;99.90;;;;;;5311936;27;20512;-75
2022/01/18 06:11:20;;;;;;;9.65;2.00;;;2.80;99.90;;;;;;5311529;27;20055;-74
2022/01/18 06:13:51;;;;;;;6.60;1.55;;;2.80;99.90;;;;;;5311813;27;20357;-75
2022/01/18 06:16:22;;;;;;;5.95;1.30;;;2.40;99.90;;;;;;5311693;28;20019;-74
2022/01/18 06:18:54;;;;;;;8.73;1.02;;;2.30;99.90;;;;;;5311509;28;20015;-74
2022/01/18 06:21:25;;;;;;;6.30;1.20;;;2.40;99.90;;;;;;5311276;28;20042;-74
2022/01/18 06:23:56;;;;;;;9.90;2.85;;;2.60;99.90;;;;;;5311378;28;20474;-72
2022/01/18 06:26:27;;;;;;;7.00;1.10;;;2.80;99.90;;;;;;5311343;28;20032;-75
2022/01/18 06:28:58;;;;;;;6.10;1.83;;;2.90;99.90;;;;;;5311331;28;20051;-74
2022/01/18 06:31:29;;;;;;;2.78;0.73;;;2.50;99.90;;;;;;5311299;28;20031;-75
2022/01/18 06:34:00;;;;;;;2.50;0.95;;;2.90;99.90;;;;;;5311299;28;20484;-72
2022/01/18 06:36:31;;;;;;;2.55;0.90;;;3.00;99.90;;;;;;5311297;28;20031;-72
2022/01/18 06:39:02;;;;;;;7.90;2.88;;;2.90;99.90;;;;;;5311222;28;20366;-72
2022/01/18 06:41:33;;;;;;;5.72;1.70;;;3.20;99.90;;;;;;5311026;28;20023;-72
2022/01/18 06:44:04;;;;;;;5.25;1.15;;;3.30;99.90;;;;;;5310570;28;20025;-75
2022/01/18 06:46:35;;;;;;;5.35;1.90;;;3.80;99.90;;;;;;5310378;28;20027;-72
2022/01/18 06:49:06;;;;;;;6.28;2.30;;;3.70;99.90;;;;;;5310672;28;20023;-76
2022/01/18 06:51:37;;;;;;;4.93;1.67;;;3.80;99.90;;;;;;5310989;28;20090;-72
2022/01/18 06:54:13;;;;;;;4.72;1.75;;;4.00;99.90;;;;;;5311353;28;20106;-71
2022/01/18 06:56:48;;;;;;;6.53;2.00;;;4.20;99.90;;;;;;5311471;28;20434;-71
2022/01/18 06:59:19;;;;;;;3.40;1.67;;;4.60;99.90;;;;;;5310923;28;20130;-73
2022/01/18 07:01:50;;;;;;;6.35;1.25;;;4.50;99.90;;;;;;5311230;28;20224;-75
2022/01/18 07:04:21;;;;;;;2.13;0.80;;;4.60;99.90;;;;;;5311284;28;20027;-71
2022/01/18 07:06:52;;;;;;;3.85;1.38;;;4.10;99.90;;;;;;5311066;28;20015;-72
2022/01/18 07:09:23;;;;;;;5.82;3.38;;;4.50;99.90;;;;;;5311509;28;20580;-73
2022/01/18 07:11:56;;;;;;;3.92;2.33;;;4.30;99.90;;;;;;5311251;28;20381;-73
2022/01/18 07:14:27;;;;;;;2.38;1.50;;;4.80;99.90;;;;;;5311348;28;20020;-73
2022/01/18 07:16:58;;;;;;;4.28;1.75;;;5.00;99.90;;;;;;5311149;28;20023;-74
2022/01/18 07:19:32;;;;;;;3.78;1.73;;;5.00;99.90;;;;;;5313244;27;20031;-72
2022/01/18 07:22:03;;;;;;;2.50;1.40;;;4.90;99.90;;;;;;5314924;27;20026;-72
2022/01/18 07:24:40;;;;;;;6.55;3.08;;;5.00;99.90;;;;;;5314996;27;20018;-73
2022/01/18 07:27:14;;;;;;;3.80;2.03;;;5.00;99.90;;;;;;5296584;27;20046;-73
2022/01/18 07:29:45;;;;;;;4.00;1.45;;;5.00;99.90;;;;;;5314858;27;20087;-72
2022/01/18 07:32:16;;;;;;;13.13;6.78;;;4.70;99.90;;;;;;5314867;27;20102;-73
2022/01/18 07:34:55;;;;;;;5.88;1.45;;;4.90;99.90;;;;;;5314579;27;20109;-72
2022/01/18 07:37:25;;;;;;;5.80;1.90;;;5.30;99.90;;;;;;5314678;27;20148;-72
2022/01/18 07:39:56;;;;;;;6.13;2.80;;;5.30;99.90;;;;;;5314765;27;20117;-72
2022/01/18 07:42:27;;;;;;;2.42;1.20;;;6.20;99.90;;;;;;5296169;27;20026;-73
2022/01/18 07:44:58;;;;;;;3.38;1.20;;;5.80;99.90;;;;;;5314456;27;20555;-73
2022/01/18 07:47:29;;;;;;;4.25;1.98;;;5.50;99.90;;;;;;5314434;27;20015;-73
2022/01/18 07:50:00;;;;;;;2.45;1.40;;;6.00;99.90;;;;;;5314261;27;20030;-72
2022/01/18 07:52:32;;;;;;;4.40;1.45;;;6.10;99.90;;;;;;5314389;27;20019;-75
2022/01/18 07:55:06;;;;;;;2.33;1.00;;;6.00;99.90;;;;;;5314253;27;20362;-72
2022/01/18 07:57:41;;;;;;;3.30;1.90;;;5.80;99.90;;;;;;5313017;27;20062;-75
2022/01/18 08:00:15;;;;;;;3.67;1.25;;;6.00;99.90;;;;;;5314252;27;20470;-74
2022/01/18 08:02:46;;;;;;;10.15;4.30;;;6.20;99.90;;;;;;5314075;27;20053;-76
2022/01/18 08:05:17;;;;;;;4.38;2.28;;;6.10;99.90;;;;;;5314069;27;20394;-76
2022/01/18 08:07:48;;;;;;;4.43;2.65;;;6.10;99.90;;;;;;5313949;27;20029;-76
2022/01/18 08:10:19;;;;;;;4.82;2.20;;;6.50;99.90;;;;;;5313201;27;20028;-74
2022/01/18 08:12:51;;;;;;;3.60;1.83;;;6.30;99.90;;;;;;5313238;27;20023;-76
2022/01/18 08:15:23;;;;;;;2.55;1.38;;;6.90;99.90;;;;;;5313232;27;20023;-73
2022/01/18 08:17:54;;;;;;;2.00;0.90;;;6.80;99.90;;;;;;5313021;27;20501;-75
2022/01/18 08:20:25;;;;;;;1.55;0.90;;;6.40;96.20;;;;;;5313247;27;20042;-76
2022/01/18 08:22:56;;;;;;;2.22;1.13;;;6.60;97.50;;;;;;5313857;27;20401;-75
2022/01/18 08:25:27;;;;;;;3.00;1.08;;;7.10;99.90;;;;;;5313619;27;20030;-76
2022/01/18 08:27:58;;;;;;;3.40;1.40;;;7.00;99.40;;;;;;5313491;27;20024;-76
2022/01/18 08:30:29;;;;;;;2.75;1.55;;;6.60;95.50;;;;;;5312970;27;20099;-73
2022/01/18 08:33:00;;;;;;;3.92;1.75;;;7.00;99.90;;;;;;5313613;27;20027;-73
2022/01/18 08:35:31;;;;;;;8.13;2.17;;;7.30;97.70;;;;;;5313336;27;20027;-73
2022/01/18 08:38:02;;;;;;;2.47;1.38;;;7.50;93.20;;;;;;5313530;27;20026;-76
2022/01/18 08:40:33;;;;;;;3.33;1.35;;;7.00;93.00;;;;;;5277341;27;20039;-73
2022/01/18 08:43:04;;;;;;;4.95;1.52;;;7.10;85.90;;;;;;5312679;27;20015;-74
2022/01/18 08:45:35;;;;;;;4.13;1.85;;;7.30;85.00;;;;;;5312444;27;20054;-75
2022/01/18 08:48:06;;;;;;;3.30;1.50;;;7.20;89.70;;;;;;5312350;27;20027;-74
2022/01/18 08:50:37;;;;;;;2.53;0.95;;;7.40;82.00;;;;;;5312397;27;20106;-74
2022/01/18 08:53:09;;;;;;;4.07;1.48;;;7.30;84.60;;;;;;5312516;27;20024;-74
2022/01/18 08:55:40;;;;;;;4.32;1.42;;;7.60;86.60;;;;;;5312504;27;20058;-76
2022/01/18 08:58:11;;;;;;;3.70;1.20;;;7.20;78.30;;;;;;5311963;27;20502;-75
2022/01/18 09:00:42;;;;;;;2.50;1.15;;;7.20;76.90;;;;;;5311999;27;20085;-75
2022/01/18 09:03:13;;;;;;;2.10;1.30;;;7.20;74.10;;;;;;5310709;27;20023;-77
2022/01/18 09:05:45;;;;;;;4.60;1.58;;;7.90;73.50;;;;;;5310961;27;20378;-74
2022/01/18 09:08:18;;;;;;;3.78;1.52;;;7.80;73.70;;;;;;5310761;27;20019;-74
2022/01/18 09:10:49;;;;;;;6.22;2.33;;;8.30;74.60;;;;;;5310978;27;20621;-74
2022/01/18 09:13:22;;;;;;;4.07;1.20;;;8.00;76.20;;;;;;5310739;27;20031;-77
2022/01/18 09:15:53;;;;;;;4.00;1.50;;;7.70;71.60;;;;;;5310493;27;20034;-72
2022/01/18 09:18:24;;;;;;;7.20;1.98;;;7.80;72.70;;;;;;5310656;27;20024;-72
2022/01/18 09:20:55;;;;;;;5.03;1.80;;;7.60;72.90;;;;;;5298398;27;20035;-73
2022/01/18 09:23:26;;;;;;;4.30;1.63;;;8.20;73.20;;;;;;5294193;27;20103;-72
2022/01/18 09:25:57;;;;;;;1.83;0.80;;;8.50;71.80;;;;;;5290642;28;20031;-73
2022/01/18 09:28:28;;;;;;;3.38;1.02;;;7.90;69.60;;;;;;5290553;28;20088;-72
2022/01/18 09:31:00;;;;;;;2.72;1.20;;;8.20;70.30;;;;;;5290557;28;20023;-71
2022/01/18 09:33:31;;;;;;;4.82;1.30;;;8.60;68.50;;;;;;5290596;28;20114;-71
2022/01/18 09:36:02;;;;;;;3.25;1.20;;;8.50;69.80;;;;;;5290537;28;20099;-71
2022/01/18 09:38:33;;;;;;;3.05;1.40;;;8.50;65.90;;;;;;5290298;28;20063;-72
2022/01/18 09:41:10;;;;;;;4.20;1.63;;;8.90;64.60;;;;;;5289646;28;20090;-72
2022/01/18 09:43:41;;;;;;;2.80;1.50;;;8.80;64.60;;;;;;5290554;28;20032;-71
2022/01/18 09:46:13;;;;;;;4.40;1.10;;;8.60;62.50;;;;;;5290336;28;20035;-71
2022/01/18 09:48:45;;;;;;;2.00;1.00;;;8.70;59.80;;;;;;5290412;28;20039;-72
2022/01/18 09:51:15;;;;;;;2.58;1.05;;;8.70;60.20;;;;;;5290186;28;20027;-72
2022/01/18 09:53:46;;;;;;;2.20;1.10;;;8.70;59.90;;;;;;5290213;28;20390;-74
2022/01/18 09:56:17;;;;;;;4.28;1.42;;;9.50;61.40;;;;;;5289984;28;20027;-72
2022/01/18 09:58:48;;;;;;;4.50;1.35;;;9.40;56.90;;;;;;5289515;28;20083;-71
2022/01/18 10:01:21;;;;;;;2.10;1.08;;;9.00;55.00;;;;;;5272161;28;20100;-74
2022/01/18 10:03:51;;;;;;;3.83;1.50;;;9.50;58.50;;;;;;5289929;28;20661;-73
2022/01/18 10:06:23;;;;;;;2.72;0.80;;;9.80;57.10;;;;;;5272301;28;20103;-73
2022/01/18 10:08:53;;;;;;;3.17;1.00;;;8.90;58.40;;;;;;5290505;28;20085;-72
2022/01/18 10:11:26;;;;;;;3.22;1.05;;;8.80;58.40;;;;;;5290438;28;20031;-72
2022/01/18 10:13:57;;;;;;;3.72;1.20;;;9.60;60.30;;;;;;5290291;28;20059;-73
2022/01/18 10:16:27;;;;;;;3.47;1.00;;;9.40;59.00;;;;;;5290352;28;20050;-73
2022/01/18 10:19:03;;;;;;;2.88;1.15;;;9.50;59.40;;;;;;5290056;28;20053;-72
2022/01/18 10:21:45;;;;;;;3.75;1.00;;;8.90;56.10;;;;;;5290573;28;20125;-71
2022/01/18 10:24:30;;;;;;;3.53;1.20;;;9.50;54.70;;;;;;5289752;28;20022;-72
2022/01/18 10:27:01;;;;;;;2.22;1.25;;;9.30;55.30;;;;;;5271428;28;20398;-73
2022/01/18 10:29:42;;;;;;;4.03;1.42;;;9.90;54.50;;;;;;5271084;28;20023;-73
2022/01/18 10:32:18;;;;;;;6.30;2.88;;;10.20;54.30;;;;;;5271401;28;20031;-71
2022/01/18 10:37:25;;;;;;;3.60;1.85;;;10.30;56.70;;;;;;5290351;28;20076;-72
2022/01/18 10:39:59;;;;;;;5.43;1.65;;;10.00;54.60;;;;;;5272090;28;20070;-72
2022/01/18 10:42:52;;;;;;;1.88;0.88;;;10.30;54.60;;;;;;5290469;28;20034;-73
2022/01/18 10:45:33;;;;;;;3.17;1.13;;;10.00;57.50;;;;;;5290152;28;20031;-72
2022/01/18 10:48:15;;;;;;;2.20;0.98;;;9.50;58.00;;;;;;5289893;28;20102;-72
2022/01/18 10:50:46;;;;;;;3.95;1.10;;;8.80;55.50;;;;;;5289594;28;20071;-73
2022/01/18 10:53:21;;;;;;;3.08;1.40;;;9.40;56.70;;;;;;5291681;28;20534;-72
2022/01/18 10:56:13;;;;;;;5.45;2.25;;;9.20;57.20;;;;;;5293385;28;20022;-73
2022/01/18 10:58:48;;;;;;;4.95;2.72;;;9.60;57.80;;;;;;5293353;28;20054;-73
2022/01/18 11:01:20;;;;;;;4.38;1.20;;;10.30;55.90;;;;;;5293549;28;20043;-75
2022/01/18 11:04:14;;;;;;;4.20;1.00;;;10.20;58.30;;;;;;5293510;28;20031;-73
2022/01/18 11:06:57;;;;;;;3.17;1.30;;;9.90;56.60;;;;;;5294036;28;20089;-71
2022/01/18 11:09:28;;;;;;;5.50;2.25;;;10.50;55.60;;;;;;5294140;28;20031;-72
2022/01/18 11:12:00;;;;;;;3.28;1.20;;;10.10;55.10;;;;;;5294014;28;20466;-73
2022/01/18 11:14:32;;;;;;;4.03;1.30;;;9.60;56.50;;;;;;5294092;28;20037;-73
2022/01/18 11:17:05;;;;;;;6.00;1.20;;;9.80;56.80;;;;;;5293988;28;20102;-72
2022/01/18 11:19:38;;;;;;;2.85;1.25;;;10.20;56.70;;;;;;5293698;28;20069;-72
2022/01/18 11:22:12;;;;;;;3.45;1.10;;;10.50;55.10;;;;;;5305625;27;20027;-73
2022/01/18 11:24:47;;;;;;;2.80;1.00;;;10.00;56.90;;;;;;5294669;27;20114;-73
2022/01/18 11:27:18;;;;;;;3.03;0.82;;;8.70;58.20;;;;;;5293550;28;20012;-72
2022/01/18 11:29:49;;;;;;;3.15;1.27;;;9.50;58.20;;;;;;5293726;28;20501;-72
2022/01/18 11:32:25;;;;;;;2.58;0.65;;;9.80;57.70;;;;;;5293359;28;20019;-72
2022/01/18 11:35:19;;;;;;;4.50;1.50;;;9.60;56.60;;;;;;5292853;28;20024;-72
2022/01/18 11:37:58;;;;;;;3.88;1.73;;;9.90;56.60;;;;;;5292454;28;20015;-73
2022/01/18 11:40:46;;;;;;;4.85;1.45;;;10.70;57.00;;;;;;5291816;28;20082;-72
2022/01/18 11:43:41;;;;;;;4.78;1.20;;;10.40;55.30;;;;;;5292895;28;20027;-72
2022/01/18 11:46:27;;;;;;;1.52;0.80;;;10.70;57.10;;;;;;5291909;28;20027;-73
2022/01/18 11:49:10;;;;;;;3.97;1.73;;;10.80;54.70;;;;;;5291445;28;20027;-72
2022/01/18 11:51:48;;;;;;;2.00;0.82;;;10.50;56.40;;;;;;5291277;28;20007;-72
2022/01/18 11:54:39;;;;;;;4.75;1.90;;;10.30;56.10;;;;;;5292254;28;20028;-72
2022/01/18 11:57:22;;;;;;;3.53;1.30;;;11.00;57.50;;;;;;5292082;28;20024;-72
2022/01/18 12:00:11;;;;;;;4.18;1.60;;;9.90;55.40;;;;;;5292409;28;20067;-72
2022/01/18 12:02:45;;;;;;;4.43;1.75;;;10.00;55.00;;;;;;5292392;28;20493;-72
2022/01/18 12:05:19;;;;;;;2.85;1.65;;;9.70;56.70;;;;;;5291552;28;20463;-72
2022/01/18 12:07:51;;;;;;;3.35;1.33;;;9.70;56.10;;;;;;5292165;28;20450;-72
2022/01/18 12:10:32;;;;;;;1.92;1.05;;;10.10;55.90;;;;;;5292095;28;20016;-73
2022/01/18 12:13:13;;;;;;;2.30;1.30;;;9.70;55.10;;;;;;5292161;28;20039;-72
2022/01/18 12:15:45;;;;;;;;;;;9.90;54.40;;;;;;5274235;28;20020;-72
2022/01/18 12:18:18;;;;;;;4.03;1.35;;;10.40;55.70;;;;;;5291981;28;19904;-72
2022/01/18 12:20:54;;;;;;;5.50;2.20;;;11.00;54.10;;;;;;5291866;28;20077;-73
2022/01/18 12:23:44;;;;;;;3.30;1.42;;;10.10;55.50;;;;;;5291987;28;20505;-72
2022/01/18 12:26:33;;;;;;;1.23;0.77;;;10.30;54.80;;;;;;5291971;28;20023;-72
2022/01/18 12:29:34;;;;;;;3.40;1.45;;;9.50;55.50;;;;;;5291761;28;20028;-72
2022/01/18 12:34:48;;;;;;;4.63;1.65;;;10.40;55.10;;;;;;5291700;28;20043;-72
2022/01/18 12:39:57;;;;;;;2.85;1.20;;;9.90;56.20;;;;;;5291432;28;20583;-72
2022/01/18 12:45:33;;;;;;;3.53;1.73;;;9.20;56.40;;;;;;5239619;28;20024;-71
2022/01/18 12:48:13;;;;;;;5.20;1.50;;;9.40;56.20;;;;;;5291449;28;20066;-71
2022/01/18 12:50:53;;;;;;;7.68;2.88;;;10.40;55.30;;;;;;5291333;28;20027;-71
2022/01/18 12:53:29;;;;;;;3.17;1.80;;;9.90;57.00;;;;;;5290994;28;20110;-72
2022/01/18 12:56:04;;;;;;;4.70;1.83;;;9.40;59.00;;;;;;5274610;27;20520;-71
2022/01/18 12:58:42;;;;;;;6.18;3.45;;;9.30;59.20;;;;;;5309570;27;20126;-71
2022/01/18 13:01:20;;;;;;;2.78;1.60;;;9.60;58.80;;;;;;5291729;28;20406;-71
2022/01/18 13:03:54;;;;;;;3.90;1.63;;;9.80;58.40;;;;;;5291728;28;20081;-71
2022/01/18 13:06:28;;;;;;;6.35;2.25;;;10.10;55.50;;;;;;5291627;28;20367;-71
2022/01/18 13:09:03;;;;;;;2.60;1.20;;;9.40;59.20;;;;;;5273201;28;20046;-71
2022/01/18 13:11:38;;;;;;;7.90;1.75;;;9.90;60.90;;;;;;5291368;28;20370;-71
2022/01/18 13:14:12;;;;;;;2.50;1.33;;;9.60;60.80;;;;;;5291550;28;20019;-71
2022/01/18 13:25:14;;;;;;;6.20;2.72;;;9.80;63.00;;;;;;5291258;28;20047;-72
2022/01/18 13:27:50;;;;;;;6.93;1.65;;;8.80;66.20;;;;;;5291393;28;20023;-72
2022/01/18 13:30:28;;;;;;;5.38;2.20;;;9.10;63.10;;;;;;5308419;27;20023;-71
2022/01/18 13:33:01;;;;;;;5.22;2.45;;;9.00;65.70;;;;;;5312249;27;20023;-71
2022/01/18 13:35:32;;;;;;;14.93;3.50;;;8.70;66.00;;;;;;5312259;27;20088;-72
2022/01/18 13:38:04;;;;;;;20.00;4.03;;;8.90;64.60;;;;;;5312193;27;20042;-73
2022/01/18 13:40:36;;;;;;;6.50;2.78;;;8.90;66.30;;;;;;5312330;27;20119;-71
2022/01/18 13:43:11;;;;;;;8.55;2.88;;;8.70;67.40;;;;;;5312181;27;20075;-71
2022/01/18 13:45:43;;;;;;;7.00;3.17;;;8.60;68.90;;;;;;5312196;27;20023;-70
2022/01/18 13:48:14;;;;;;;10.82;5.10;;;8.10;67.50;;;;;;5312156;27;20493;-71
2022/01/18 13:50:56;;;;;;;16.02;11.93;;;7.60;70.90;;;;;;5312116;27;20072;-71
2022/01/18 13:53:29;;;;;;;70.47;38.63;;;7.30;71.80;;;;;;5312291;27;20026;-70
2022/01/18 13:56:17;;;;;;;417.00;208.90;;;7.40;71.80;;;;;;5312046;27;20030;-71
2022/01/18 13:59:01;;;;;;;152.95;73.72;;;7.60;74.10;;;;;;5311840;27;20042;-71
2022/01/18 14:01:37;;;;;;;66.65;37.25;;;7.10;72.60;;;;;;5312318;27;20043;-71
2022/01/18 14:04:18;;;;;;;24.33;15.63;;;7.00;74.90;;;;;;5311775;27;20470;-72
2022/01/18 14:06:50;;;;;;;10.32;6.75;;;6.70;74.60;;;;;;5311980;27;20069;-72
2022/01/18 14:09:23;;;;;;;10.00;5.35;;;6.70;77.30;;;;;;5311925;27;20023;-71
2022/01/18 14:11:55;;;;;;;15.07;10.50;;;6.90;78.90;;;;;;5311830;27;20026;-71
2022/01/18 14:14:33;;;;;;;6.90;4.03;;;6.70;79.30;;;;;;5311705;27;20459;-71
2022/01/18 14:17:06;;;;;;;7.88;3.30;;;6.90;79.80;;;;;;5311956;27;20354;-71
2022/01/18 14:19:40;;;;;;;6.55;2.10;;;6.70;81.60;;;;;;5311553;28;20031;-70
2022/01/18 14:22:23;;;;;;;8.52;2.13;;;6.50;81.80;;;;;;5311672;28;20052;-72
2022/01/18 14:24:57;;;;;;;6.35;2.00;;;6.60;80.70;;;;;;5311601;28;20026;-71
2022/01/18 14:27:32;;;;;;;4.47;1.70;;;6.40;82.00;;;;;;5312556;27;20025;-72
2022/01/18 14:30:11;;;;;;;7.03;2.08;;;6.70;82.70;;;;;;5315974;27;20023;-71
2022/01/18 14:32:43;;;;;;;5.85;2.22;;;6.50;80.60;;;;;;5316044;27;20079;-71
2022/01/18 14:35:17;;;;;;;3.78;1.98;;;6.40;79.80;;;;;;5297698;27;20109;-72
2022/01/18 14:37:50;;;;;;;6.93;2.28;;;6.70;81.60;;;;;;5315744;27;20045;-72
2022/01/18 14:40:25;;;;;;;10.35;3.10;;;6.30;81.40;;;;;;5315788;27;21051;-72
2022/01/18 14:43:09;;;;;;;5.60;2.38;;;6.10;82.70;;;;;;5315842;27;20476;-72
2022/01/18 14:46:02;;;;;;;3.67;2.05;;;6.50;81.60;;;;;;5315706;27;20523;-72